sensor_id;sensor_type;location;lat;lon;timestamp;temperature;humidity
62339;DHT22;48368;53.406;6.214;2023-02-28T00:00:11;5.00;99.90
62339;DHT22;48368;53.406;6.214;2023-02-28T00:02:39;5.00;99.90
62339;DHT22;48368;53.406;6.214;2023-02-28T00:05:06;5.00;99.90
62339;DHT22;48368;53.406;6.214;2023-02-28T00:07:32;4.90;99.90
62339;DHT22;48368;53.406;6.214;2023-02-28T00:09:58;5.00;99.90
62339;DHT22;48368;53.406;6.214;2023-02-28T00:12:24;5.00;99.90
62339;DHT22;48368;53.406;6.214;2023-02-28T00:14:50;4.90;99.90
62339;DHT22;48368;53.406;6.214;2023-02-28T00:17:16;5.00;99.90
62339;DHT22;48368;53.406;6.214;2023-02-28T00:19:50;5.00;99.90
62339;DHT22;48368;53.406;6.214;2023-02-28T00:22:17;5.00;99.90
62339;DHT22;48368;53.406;6.214;2023-02-28T00:24:44;5.10;99.90
62339;DHT22;48368;53.406;6.214;2023-02-28T00:27:09;5.00;99.90
62339;DHT22;48368;53.406;6.214;2023-02-28T00:29:35;5.10;99.90
62339;DHT22;48368;53.406;6.214;2023-02-28T00:32:01;5.20;99.90
62339;DHT22;48368;53.406;6.214;2023-02-28T00:34:27;5.10;99.90
62339;DHT22;48368;53.406;6.214;2023-02-28T00:36:53;5.20;99.90
62339;DHT22;48368;53.406;6.214;2023-02-28T00:39:18;5.20;99.90
62339;DHT22;48368;53.406;6.214;2023-02-28T00:41:50;5.20;99.90
62339;DHT22;48368;53.406;6.214;2023-02-28T00:44:16;5.20;99.90
62339;DHT22;48368;53.406;6.214;2023-02-28T00:46:41;5.20;99.90
62339;DHT22;48368;53.406;6.214;2023-02-28T00:49:07;5.20;99.90
62339;DHT22;48368;53.406;6.214;2023-02-28T00:51:33;5.20;99.90
62339;DHT22;48368;53.406;6.214;2023-02-28T00:53:58;5.20;99.90
62339;DHT22;48368;53.406;6.214;2023-02-28T00:56:24;5.20;99.90
62339;DHT22;48368;53.406;6.214;2023-02-28T00:58:49;5.10;99.90
62339;DHT22;48368;53.406;6.214;2023-02-28T01:01:15;5.20;99.90
62339;DHT22;48368;53.406;6.214;2023-02-28T01:03:41;5.10;99.90
62339;DHT22;48368;53.406;6.214;2023-02-28T01:06:07;5.10;99.90
62339;DHT22;48368;53.406;6.214;2023-02-28T01:08:33;5.10;99.90
62339;DHT22;48368;53.406;6.214;2023-02-28T01:11:07;5.10;99.90
62339;DHT22;48368;53.406;6.214;2023-02-28T01:13:33;5.10;99.90
62339;DHT22;48368;53.406;6.214;2023-02-28T01:15:59;5.10;99.90
62339;DHT22;48368;53.406;6.214;2023-02-28T01:18:24;5.10;99.90
62339;DHT22;48368;53.406;6.214;2023-02-28T01:20:50;5.10;99.90
62339;DHT22;48368;53.406;6.214;2023-02-28T01:23:18;5.00;99.90
62339;DHT22;48368;53.406;6.214;2023-02-28T01:25:45;5.00;99.90
62339;DHT22;48368;53.406;6.214;2023-02-28T01:28:10;5.00;99.90
62339;DHT22;48368;53.406;6.214;2023-02-28T01:30:36;5.00;99.90
62339;DHT22;48368;53.406;6.214;2023-02-28T01:33:02;5.00;99.90
62339;DHT22;48368;53.406;6.214;2023-02-28T01:35:27;5.00;99.90
62339;DHT22;48368;53.406;6.214;2023-02-28T01:37:53;5.00;99.90
62339;DHT22;48368;53.406;6.214;2023-02-28T01:40:19;5.00;99.90
62339;DHT22;48368;53.406;6.214;2023-02-28T01:42:45;5.00;99.90
62339;DHT22;48368;53.406;6.214;2023-02-28T01:45:29;5.00;99.90
62339;DHT22;48368;53.406;6.214;2023-02-28T01:48:01;5.10;99.90
62339;DHT22;48368;53.406;6.214;2023-02-28T01:50:30;5.00;99.90
62339;DHT22;48368;53.406;6.214;2023-02-28T01:53:00;4.90;99.90
62339;DHT22;48368;53.406;6.214;2023-02-28T01:55:28;5.00;99.90
62339;DHT22;48368;53.406;6.214;2023-02-28T01:57:56;5.00;99.90
62339;DHT22;48368;53.406;6.214;2023-02-28T02:00:25;5.00;99.90
62339;DHT22;48368;53.406;6.214;2023-02-28T02:03:00;5.00;99.90
62339;DHT22;48368;53.406;6.214;2023-02-28T02:05:28;4.90;99.90
62339;DHT22;48368;53.406;6.214;2023-02-28T02:08:00;4.90;99.90
62339;DHT22;48368;53.406;6.214;2023-02-28T02:13:49;5.00;99.90
62339;DHT22;48368;53.406;6.214;2023-02-28T02:25:26;5.20;99.90
62339;DHT22;48368;53.406;6.214;2023-02-28T02:36:27;5.50;99.90
62339;DHT22;48368;53.406;6.214;2023-02-28T02:39:11;5.50;99.90
62339;DHT22;48368;53.406;6.214;2023-02-28T02:41:53;5.50;99.90
62339;DHT22;48368;53.406;6.214;2023-02-28T02:44:37;5.50;99.90
62339;DHT22;48368;53.406;6.214;2023-02-28T02:47:09;5.60;99.90
62339;DHT22;48368;53.406;6.214;2023-02-28T02:49:38;5.60;99.90
62339;DHT22;48368;53.406;6.214;2023-02-28T02:52:09;5.50;99.90
62339;DHT22;48368;53.406;6.214;2023-02-28T02:54:38;5.60;99.90
62339;DHT22;48368;53.406;6.214;2023-02-28T02:57:35;5.60;99.90
62339;DHT22;48368;53.406;6.214;2023-02-28T03:00:04;5.60;99.90
62339;DHT22;48368;53.406;6.214;2023-02-28T03:02:34;5.60;99.90
62339;DHT22;48368;53.406;6.214;2023-02-28T03:05:04;5.60;99.90
62339;DHT22;48368;53.406;6.214;2023-02-28T03:07:31;5.50;99.90
62339;DHT22;48368;53.406;6.214;2023-02-28T03:09:57;5.60;99.90
62339;DHT22;48368;53.406;6.214;2023-02-28T03:12:33;5.60;99.90
62339;DHT22;48368;53.406;6.214;2023-02-28T03:15:11;5.60;99.90
62339;DHT22;48368;53.406;6.214;2023-02-28T03:20:15;5.50;99.90
62339;DHT22;48368;53.406;6.214;2023-02-28T03:22:52;5.50;99.90
62339;DHT22;48368;53.406;6.214;2023-02-28T03:25:21;5.60;99.90
62339;DHT22;48368;53.406;6.214;2023-02-28T03:28:03;5.60;99.90
62339;DHT22;48368;53.406;6.214;2023-02-28T03:33:17;5.60;99.90
62339;DHT22;48368;53.406;6.214;2023-02-28T03:36:02;5.60;99.90
62339;DHT22;48368;53.406;6.214;2023-02-28T03:38:41;5.60;99.90
62339;DHT22;48368;53.406;6.214;2023-02-28T03:41:17;5.50;99.90
62339;DHT22;48368;53.406;6.214;2023-02-28T03:43:54;5.50;99.90
62339;DHT22;48368;53.406;6.214;2023-02-28T03:46:23;5.50;99.90
62339;DHT22;48368;53.406;6.214;2023-02-28T03:49:30;5.60;99.90
62339;DHT22;48368;53.406;6.214;2023-02-28T03:52:02;5.60;99.90
62339;DHT22;48368;53.406;6.214;2023-02-28T03:54:33;5.60;99.90
62339;DHT22;48368;53.406;6.214;2023-02-28T03:57:21;5.60;99.90
62339;DHT22;48368;53.406;6.214;2023-02-28T04:00:11;5.60;99.90
62339;DHT22;48368;53.406;6.214;2023-02-28T04:02:37;5.60;99.90
62339;DHT22;48368;53.406;6.214;2023-02-28T04:05:05;5.60;99.90
62339;DHT22;48368;53.406;6.214;2023-02-28T04:07:31;5.60;99.90
62339;DHT22;48368;53.406;6.214;2023-02-28T04:09:57;5.60;99.90
62339;DHT22;48368;53.406;6.214;2023-02-28T04:12:23;5.60;99.90
62339;DHT22;48368;53.406;6.214;2023-02-28T04:14:49;5.60;99.90
62339;DHT22;48368;53.406;6.214;2023-02-28T04:17:15;5.60;99.90
62339;DHT22;48368;53.406;6.214;2023-02-28T04:19:41;5.60;99.90
62339;DHT22;48368;53.406;6.214;2023-02-28T04:22:08;5.60;99.90
62339;DHT22;48368;53.406;6.214;2023-02-28T04:24:34;5.60;99.90
62339;DHT22;48368;53.406;6.214;2023-02-28T04:27:00;5.60;99.90
62339;DHT22;48368;53.406;6.214;2023-02-28T04:29:28;5.50;99.90
62339;DHT22;48368;53.406;6.214;2023-02-28T04:31:55;5.60;99.90
62339;DHT22;48368;53.406;6.214;2023-02-28T04:34:25;5.60;99.90
62339;DHT22;48368;53.406;6.214;2023-02-28T04:36:52;5.50;99.90
62339;DHT22;48368;53.406;6.214;2023-02-28T04:39:20;5.60;99.90
62339;DHT22;48368;53.406;6.214;2023-02-28T04:41:49;5.60;99.90
62339;DHT22;48368;53.406;6.214;2023-02-28T04:44:15;5.60;99.90
62339;DHT22;48368;53.406;6.214;2023-02-28T04:46:41;5.60;99.90
62339;DHT22;48368;53.406;6.214;2023-02-28T04:49:08;5.60;99.90
62339;DHT22;48368;53.406;6.214;2023-02-28T04:51:36;5.60;99.90
62339;DHT22;48368;53.406;6.214;2023-02-28T04:54:01;5.60;99.90
62339;DHT22;48368;53.406;6.214;2023-02-28T04:56:27;5.60;99.90
62339;DHT22;48368;53.406;6.214;2023-02-28T04:58:52;5.60;99.90
62339;DHT22;48368;53.406;6.214;2023-02-28T05:01:28;5.60;99.90
62339;DHT22;48368;53.406;6.214;2023-02-28T05:03:55;5.70;99.90
62339;DHT22;48368;53.406;6.214;2023-02-28T05:06:27;5.70;99.90
62339;DHT22;48368;53.406;6.214;2023-02-28T05:08:53;5.60;99.90
62339;DHT22;48368;53.406;6.214;2023-02-28T05:11:22;5.60;99.90
62339;DHT22;48368;53.406;6.214;2023-02-28T05:13:49;5.60;99.90
62339;DHT22;48368;53.406;6.214;2023-02-28T05:16:15;5.60;99.90
62339;DHT22;48368;53.406;6.214;2023-02-28T05:18:41;5.60;99.90
62339;DHT22;48368;53.406;6.214;2023-02-28T05:23:49;5.70;99.90
62339;DHT22;48368;53.406;6.214;2023-02-28T05:26:15;5.50;99.90
62339;DHT22;48368;53.406;6.214;2023-02-28T05:28:40;5.60;99.90
62339;DHT22;48368;53.406;6.214;2023-02-28T05:31:07;5.60;99.90
62339;DHT22;48368;53.406;6.214;2023-02-28T05:33:33;5.50;99.90
62339;DHT22;48368;53.406;6.214;2023-02-28T05:35:58;5.50;99.90
62339;DHT22;48368;53.406;6.214;2023-02-28T05:38:24;5.60;99.90
62339;DHT22;48368;53.406;6.214;2023-02-28T05:40:49;5.60;99.90
62339;DHT22;48368;53.406;6.214;2023-02-28T05:43:17;5.50;99.90
62339;DHT22;48368;53.406;6.214;2023-02-28T05:45:42;5.50;99.90
62339;DHT22;48368;53.406;6.214;2023-02-28T05:48:08;5.60;99.90
62339;DHT22;48368;53.406;6.214;2023-02-28T05:50:33;5.50;99.90
62339;DHT22;48368;53.406;6.214;2023-02-28T05:52:59;5.50;99.90
62339;DHT22;48368;53.406;6.214;2023-02-28T05:55:25;5.50;99.90
62339;DHT22;48368;53.406;6.214;2023-02-28T05:57:50;5.50;99.90
62339;DHT22;48368;53.406;6.214;2023-02-28T06:00:16;5.50;99.90
62339;DHT22;48368;53.406;6.214;2023-02-28T06:02:43;5.50;99.90
62339;DHT22;48368;53.406;6.214;2023-02-28T06:05:17;5.40;99.90
62339;DHT22;48368;53.406;6.214;2023-02-28T06:07:43;5.50;99.90
62339;DHT22;48368;53.406;6.214;2023-02-28T06:10:12;5.40;99.90
62339;DHT22;48368;53.406;6.214;2023-02-28T06:12:38;5.40;99.90
62339;DHT22;48368;53.406;6.214;2023-02-28T06:15:04;5.40;99.90
62339;DHT22;48368;53.406;6.214;2023-02-28T06:17:30;5.40;99.90
62339;DHT22;48368;53.406;6.214;2023-02-28T06:19:55;5.40;99.90
62339;DHT22;48368;53.406;6.214;2023-02-28T06:22:21;5.30;99.90
62339;DHT22;48368;53.406;6.214;2023-02-28T06:24:47;5.20;99.90
62339;DHT22;48368;53.406;6.214;2023-02-28T06:27:12;5.30;99.90
62339;DHT22;48368;53.406;6.214;2023-02-28T06:29:38;5.30;99.90
62339;DHT22;48368;53.406;6.214;2023-02-28T06:32:05;5.20;99.90
62339;DHT22;48368;53.406;6.214;2023-02-28T06:34:31;5.20;99.90
62339;DHT22;48368;53.406;6.214;2023-02-28T06:36:57;5.10;99.90
62339;DHT22;48368;53.406;6.214;2023-02-28T06:39:28;5.10;99.90
62339;DHT22;48368;53.406;6.214;2023-02-28T06:41:54;5.00;99.90
62339;DHT22;48368;53.406;6.214;2023-02-28T06:44:19;4.70;99.90
62339;DHT22;48368;53.406;6.214;2023-02-28T06:46:46;4.50;99.90
62339;DHT22;48368;53.406;6.214;2023-02-28T06:49:12;4.30;99.90
62339;DHT22;48368;53.406;6.214;2023-02-28T06:51:39;4.20;99.90
62339;DHT22;48368;53.406;6.214;2023-02-28T06:54:05;4.10;99.90
62339;DHT22;48368;53.406;6.214;2023-02-28T06:56:34;3.90;99.90
62339;DHT22;48368;53.406;6.214;2023-02-28T06:59:00;4.00;99.90
62339;DHT22;48368;53.406;6.214;2023-02-28T07:01:26;3.90;99.90
62339;DHT22;48368;53.406;6.214;2023-02-28T07:03:53;3.80;99.90
62339;DHT22;48368;53.406;6.214;2023-02-28T07:06:20;3.80;99.90
62339;DHT22;48368;53.406;6.214;2023-02-28T07:08:48;3.80;99.90
62339;DHT22;48368;53.406;6.214;2023-02-28T07:11:15;3.80;99.90
62339;DHT22;48368;53.406;6.214;2023-02-28T07:13:40;3.70;99.90
62339;DHT22;48368;53.406;6.214;2023-02-28T07:16:09;3.70;99.90
62339;DHT22;48368;53.406;6.214;2023-02-28T07:18:35;3.70;99.90
62339;DHT22;48368;53.406;6.214;2023-02-28T07:21:09;3.70;99.90
62339;DHT22;48368;53.406;6.214;2023-02-28T07:23:35;3.70;99.90
62339;DHT22;48368;53.406;6.214;2023-02-28T07:26:04;3.70;99.90
62339;DHT22;48368;53.406;6.214;2023-02-28T07:28:30;3.70;99.90
62339;DHT22;48368;53.406;6.214;2023-02-28T07:30:55;3.70;99.90
62339;DHT22;48368;53.406;6.214;2023-02-28T07:33:21;3.70;99.90
62339;DHT22;48368;53.406;6.214;2023-02-28T07:35:47;3.60;99.90
62339;DHT22;48368;53.406;6.214;2023-02-28T07:38:13;3.60;99.90
62339;DHT22;48368;53.406;6.214;2023-02-28T07:40:39;3.60;99.90
62339;DHT22;48368;53.406;6.214;2023-02-28T07:43:05;3.60;99.90
62339;DHT22;48368;53.406;6.214;2023-02-28T07:45:31;3.60;99.90
62339;DHT22;48368;53.406;6.214;2023-02-28T07:48:00;3.50;99.90
62339;DHT22;48368;53.406;6.214;2023-02-28T07:50:26;3.50;99.90
62339;DHT22;48368;53.406;6.214;2023-02-28T07:52:57;3.50;99.90
62339;DHT22;48368;53.406;6.214;2023-02-28T07:55:23;3.50;99.90
62339;DHT22;48368;53.406;6.214;2023-02-28T07:57:48;3.50;99.90
62339;DHT22;48368;53.406;6.214;2023-02-28T08:00:14;3.60;99.90
62339;DHT22;48368;53.406;6.214;2023-02-28T08:02:40;3.50;99.90
62339;DHT22;48368;53.406;6.214;2023-02-28T08:05:06;3.60;99.90
62339;DHT22;48368;53.406;6.214;2023-02-28T08:07:32;3.50;99.90
62339;DHT22;48368;53.406;6.214;2023-02-28T08:09:59;3.60;99.90
62339;DHT22;48368;53.406;6.214;2023-02-28T08:12:27;3.50;99.90
62339;DHT22;48368;53.406;6.214;2023-02-28T08:14:53;3.60;99.90
62339;DHT22;48368;53.406;6.214;2023-02-28T08:17:19;3.50;99.90
62339;DHT22;48368;53.406;6.214;2023-02-28T08:19:47;3.50;99.90
62339;DHT22;48368;53.406;6.214;2023-02-28T08:22:13;3.50;99.90
62339;DHT22;48368;53.406;6.214;2023-02-28T08:24:43;3.70;99.90
62339;DHT22;48368;53.406;6.214;2023-02-28T08:27:09;3.50;99.90
62339;DHT22;48368;53.406;6.214;2023-02-28T08:29:37;3.50;99.90
62339;DHT22;48368;53.406;6.214;2023-02-28T08:32:04;3.60;99.90
62339;DHT22;48368;53.406;6.214;2023-02-28T08:34:30;3.70;99.90
62339;DHT22;48368;53.406;6.214;2023-02-28T08:36:55;3.70;99.90
62339;DHT22;48368;53.406;6.214;2023-02-28T08:39:22;3.80;99.90
62339;DHT22;48368;53.406;6.214;2023-02-28T08:41:48;3.70;99.90
62339;DHT22;48368;53.406;6.214;2023-02-28T08:44:14;3.80;99.90
62339;DHT22;48368;53.406;6.214;2023-02-28T08:46:39;3.90;99.90
62339;DHT22;48368;53.406;6.214;2023-02-28T08:49:05;3.80;99.90
62339;DHT22;48368;53.406;6.214;2023-02-28T08:51:32;3.80;99.90
62339;DHT22;48368;53.406;6.214;2023-02-28T08:53:59;3.90;99.90
62339;DHT22;48368;53.406;6.214;2023-02-28T08:56:26;3.90;99.90
62339;DHT22;48368;53.406;6.214;2023-02-28T08:58:54;4.00;99.90
62339;DHT22;48368;53.406;6.214;2023-02-28T09:01:28;4.20;99.90
62339;DHT22;48368;53.406;6.214;2023-02-28T09:03:55;4.20;99.90
62339;DHT22;48368;53.406;6.214;2023-02-28T09:06:23;4.20;99.90
62339;DHT22;48368;53.406;6.214;2023-02-28T09:08:49;4.10;99.90
62339;DHT22;48368;53.406;6.214;2023-02-28T09:11:15;4.20;99.90
62339;DHT22;48368;53.406;6.214;2023-02-28T09:13:40;4.30;99.90
62339;DHT22;48368;53.406;6.214;2023-02-28T09:16:10;4.30;99.90
62339;DHT22;48368;53.406;6.214;2023-02-28T09:18:36;4.40;99.90
62339;DHT22;48368;53.406;6.214;2023-02-28T09:21:08;4.40;99.90
62339;DHT22;48368;53.406;6.214;2023-02-28T09:23:34;4.60;99.90
62339;DHT22;48368;53.406;6.214;2023-02-28T09:26:00;4.70;99.90
62339;DHT22;48368;53.406;6.214;2023-02-28T09:28:26;4.90;99.90
62339;DHT22;48368;53.406;6.214;2023-02-28T09:30:53;5.10;99.90
62339;DHT22;48368;53.406;6.214;2023-02-28T09:33:20;5.20;99.90
62339;DHT22;48368;53.406;6.214;2023-02-28T09:35:50;5.30;99.90
62339;DHT22;48368;53.406;6.214;2023-02-28T09:38:19;5.30;99.90
62339;DHT22;48368;53.406;6.214;2023-02-28T09:40:52;5.20;99.90
62339;DHT22;48368;53.406;6.214;2023-02-28T09:43:20;5.20;99.90
62339;DHT22;48368;53.406;6.214;2023-02-28T09:46:05;5.30;99.90
62339;DHT22;48368;53.406;6.214;2023-02-28T09:48:35;5.50;99.90
62339;DHT22;48368;53.406;6.214;2023-02-28T09:51:50;5.50;99.90
62339;DHT22;48368;53.406;6.214;2023-02-28T09:53:50;5.60;99.90
62339;DHT22;48368;53.406;6.214;2023-02-28T09:56:21;5.60;99.90
62339;DHT22;48368;53.406;6.214;2023-02-28T09:59:09;5.60;99.90
62339;DHT22;48368;53.406;6.214;2023-02-28T10:05:02;5.20;99.90
62339;DHT22;48368;53.406;6.214;2023-02-28T10:10:30;5.50;99.90
62339;DHT22;48368;53.406;6.214;2023-02-28T10:13:01;5.50;99.90
62339;DHT22;48368;53.406;6.214;2023-02-28T10:15:31;5.50;99.90
62339;DHT22;48368;53.406;6.214;2023-02-28T10:18:04;5.60;99.90
62339;DHT22;48368;53.406;6.214;2023-02-28T10:20:34;5.60;99.90
62339;DHT22;48368;53.406;6.214;2023-02-28T10:23:30;5.70;99.90
62339;DHT22;48368;53.406;6.214;2023-02-28T10:26:05;5.70;99.90
62339;DHT22;48368;53.406;6.214;2023-02-28T10:28:35;5.80;99.90
62339;DHT22;48368;53.406;6.214;2023-02-28T10:31:02;5.90;99.90
62339;DHT22;48368;53.406;6.214;2023-02-28T10:33:31;5.90;99.90
62339;DHT22;48368;53.406;6.214;2023-02-28T10:35:58;5.90;99.90
62339;DHT22;48368;53.406;6.214;2023-02-28T10:38:36;6.10;99.90
62339;DHT22;48368;53.406;6.214;2023-02-28T10:44:22;6.30;99.90
62339;DHT22;48368;53.406;6.214;2023-02-28T10:46:49;6.50;99.90
62339;DHT22;48368;53.406;6.214;2023-02-28T10:49:20;6.70;99.90
62339;DHT22;48368;53.406;6.214;2023-02-28T10:51:55;6.70;99.90
62339;DHT22;48368;53.406;6.214;2023-02-28T10:54:36;6.70;99.90
62339;DHT22;48368;53.406;6.214;2023-02-28T10:57:22;6.90;99.90
62339;DHT22;48368;53.406;6.214;2023-02-28T11:00:05;7.20;99.90
62339;DHT22;48368;53.406;6.214;2023-02-28T11:02:37;7.40;99.90
62339;DHT22;48368;53.406;6.214;2023-02-28T11:05:31;7.50;99.90
62339;DHT22;48368;53.406;6.214;2023-02-28T11:08:21;7.60;99.90
62339;DHT22;48368;53.406;6.214;2023-02-28T11:10:55;7.80;99.90
62339;DHT22;48368;53.406;6.214;2023-02-28T11:13:28;7.90;99.90
62339;DHT22;48368;53.406;6.214;2023-02-28T11:15:57;8.10;99.90
62339;DHT22;48368;53.406;6.214;2023-02-28T11:18:50;8.20;99.90
62339;DHT22;48368;53.406;6.214;2023-02-28T11:21:32;8.10;99.90
62339;DHT22;48368;53.406;6.214;2023-02-28T11:24:04;8.20;99.90
62339;DHT22;48368;53.406;6.214;2023-02-28T11:26:40;8.10;99.90
62339;DHT22;48368;53.406;6.214;2023-02-28T11:29:21;8.20;99.90
62339;DHT22;48368;53.406;6.214;2023-02-28T11:32:02;8.40;99.90
62339;DHT22;48368;53.406;6.214;2023-02-28T11:34:28;8.30;99.90
62339;DHT22;48368;53.406;6.214;2023-02-28T11:36:57;8.40;99.90
62339;DHT22;48368;53.406;6.214;2023-02-28T11:39:26;8.50;99.90
62339;DHT22;48368;53.406;6.214;2023-02-28T11:53:32;8.50;99.90
62339;DHT22;48368;53.406;6.214;2023-02-28T12:04:26;8.60;99.90
62339;DHT22;48368;53.406;6.214;2023-02-28T12:09:57;8.40;99.90
62339;DHT22;48368;53.406;6.214;2023-02-28T12:12:38;8.20;99.90
62339;DHT22;48368;53.406;6.214;2023-02-28T12:26:50;8.20;99.90
62339;DHT22;48368;53.406;6.214;2023-02-28T12:29:29;8.20;99.90
62339;DHT22;48368;53.406;6.214;2023-02-28T12:32:04;8.10;99.90
62339;DHT22;48368;53.406;6.214;2023-02-28T12:34:35;8.10;99.90
62339;DHT22;48368;53.406;6.214;2023-02-28T12:37:08;8.20;99.90
62339;DHT22;48368;53.406;6.214;2023-02-28T12:39:39;8.20;99.90
62339;DHT22;48368;53.406;6.214;2023-02-28T12:42:22;8.10;99.90
62339;DHT22;48368;53.406;6.214;2023-02-28T12:44:53;7.90;99.90
62339;DHT22;48368;53.406;6.214;2023-02-28T12:47:19;7.90;99.90
62339;DHT22;48368;53.406;6.214;2023-02-28T12:50:02;8.10;99.90
62339;DHT22;48368;53.406;6.214;2023-02-28T12:52:50;8.30;99.90
62339;DHT22;48368;53.406;6.214;2023-02-28T13:09:14;8.20;99.90
62339;DHT22;48368;53.406;6.214;2023-02-28T13:11:44;8.20;99.90
62339;DHT22;48368;53.406;6.214;2023-02-28T13:14:22;8.20;99.90
62339;DHT22;48368;53.406;6.214;2023-02-28T13:16:59;8.30;99.90
62339;DHT22;48368;53.406;6.214;2023-02-28T13:19:34;8.30;99.90
62339;DHT22;48368;53.406;6.214;2023-02-28T13:22:01;8.40;99.90
62339;DHT22;48368;53.406;6.214;2023-02-28T13:29:40;8.60;99.90
62339;DHT22;48368;53.406;6.214;2023-02-28T13:39:57;8.70;99.90
62339;DHT22;48368;53.406;6.214;2023-02-28T13:50:37;8.70;99.90
62339;DHT22;48368;53.406;6.214;2023-02-28T14:04:50;8.80;99.90
62339;DHT22;48368;53.406;6.214;2023-02-28T14:07:21;8.80;99.90
62339;DHT22;48368;53.406;6.214;2023-02-28T14:10:04;8.90;99.90
62339;DHT22;48368;53.406;6.214;2023-02-28T14:12:57;8.90;99.90
62339;DHT22;48368;53.406;6.214;2023-02-28T14:18:29;9.00;99.90
62339;DHT22;48368;53.406;6.214;2023-02-28T14:21:01;8.80;99.90
62339;DHT22;48368;53.406;6.214;2023-02-28T14:23:49;8.90;99.90
62339;DHT22;48368;53.406;6.214;2023-02-28T14:34:51;8.90;99.90
62339;DHT22;48368;53.406;6.214;2023-02-28T14:37:30;8.90;99.90
62339;DHT22;48368;53.406;6.214;2023-02-28T14:40:00;8.90;99.90
62339;DHT22;48368;53.406;6.214;2023-02-28T14:42:35;9.00;99.90
62339;DHT22;48368;53.406;6.214;2023-02-28T14:45:02;8.80;99.90
62339;DHT22;48368;53.406;6.214;2023-02-28T14:47:31;8.80;99.90
62339;DHT22;48368;53.406;6.214;2023-02-28T14:49:59;8.80;99.90
62339;DHT22;48368;53.406;6.214;2023-02-28T14:52:27;8.70;99.90
62339;DHT22;48368;53.406;6.214;2023-02-28T14:55:15;8.80;99.90
62339;DHT22;48368;53.406;6.214;2023-02-28T14:57:55;8.80;99.90
62339;DHT22;48368;53.406;6.214;2023-02-28T15:00:26;8.80;99.90
62339;DHT22;48368;53.406;6.214;2023-02-28T15:02:52;8.80;99.90
62339;DHT22;48368;53.406;6.214;2023-02-28T15:05:32;8.90;99.90
62339;DHT22;48368;53.406;6.214;2023-02-28T15:08:11;8.90;99.90
62339;DHT22;48368;53.406;6.214;2023-02-28T15:10:38;8.80;99.90
62339;DHT22;48368;53.406;6.214;2023-02-28T15:13:09;8.70;99.90
62339;DHT22;48368;53.406;6.214;2023-02-28T15:20:49;8.40;99.90
62339;DHT22;48368;53.406;6.214;2023-02-28T15:23:16;8.30;99.90
62339;DHT22;48368;53.406;6.214;2023-02-28T15:25:43;8.20;99.90
62339;DHT22;48368;53.406;6.214;2023-02-28T15:28:14;8.30;99.90
62339;DHT22;48368;53.406;6.214;2023-02-28T15:30:51;8.20;99.90
62339;DHT22;48368;53.406;6.214;2023-02-28T15:35:44;7.80;99.90
62339;DHT22;48368;53.406;6.214;2023-02-28T15:38:27;7.90;99.90
62339;DHT22;48368;53.406;6.214;2023-02-28T15:40:57;7.70;99.90
62339;DHT22;48368;53.406;6.214;2023-02-28T15:43:24;7.60;99.90
62339;DHT22;48368;53.406;6.214;2023-02-28T15:45:59;7.60;99.90
62339;DHT22;48368;53.406;6.214;2023-02-28T15:51:20;7.40;99.90
62339;DHT22;48368;53.406;6.214;2023-02-28T15:53:50;7.30;99.90
62339;DHT22;48368;53.406;6.214;2023-02-28T15:56:33;7.40;99.90
62339;DHT22;48368;53.406;6.214;2023-02-28T15:59:05;7.60;99.90
62339;DHT22;48368;53.406;6.214;2023-02-28T16:01:40;7.40;99.90
62339;DHT22;48368;53.406;6.214;2023-02-28T16:04:13;7.40;99.90
62339;DHT22;48368;53.406;6.214;2023-02-28T16:09:25;7.40;99.90
62339;DHT22;48368;53.406;6.214;2023-02-28T16:11:54;7.40;99.90
62339;DHT22;48368;53.406;6.214;2023-02-28T16:14:25;7.20;99.90
62339;DHT22;48368;53.406;6.214;2023-02-28T16:17:06;7.00;99.90
62339;DHT22;48368;53.406;6.214;2023-02-28T16:19:34;6.80;99.90
62339;DHT22;48368;53.406;6.214;2023-02-28T16:22:00;6.70;99.90
62339;DHT22;48368;53.406;6.214;2023-02-28T16:24:26;6.60;99.90
62339;DHT22;48368;53.406;6.214;2023-02-28T16:26:54;6.60;99.90
62339;DHT22;48368;53.406;6.214;2023-02-28T16:29:26;6.50;99.90
62339;DHT22;48368;53.406;6.214;2023-02-28T16:31:53;6.40;99.90
62339;DHT22;48368;53.406;6.214;2023-02-28T16:34:19;6.30;99.90
62339;DHT22;48368;53.406;6.214;2023-02-28T16:36:47;6.30;99.90
62339;DHT22;48368;53.406;6.214;2023-02-28T16:39:13;6.30;99.90
62339;DHT22;48368;53.406;6.214;2023-02-28T16:41:42;6.40;99.90
62339;DHT22;48368;53.406;6.214;2023-02-28T16:44:21;6.40;99.90
62339;DHT22;48368;53.406;6.214;2023-02-28T16:46:49;6.50;99.90
62339;DHT22;48368;53.406;6.214;2023-02-28T16:49:15;6.50;99.90
62339;DHT22;48368;53.406;6.214;2023-02-28T16:51:41;6.40;99.90
62339;DHT22;48368;53.406;6.214;2023-02-28T16:54:06;6.40;99.90
62339;DHT22;48368;53.406;6.214;2023-02-28T16:56:34;6.40;99.90
62339;DHT22;48368;53.406;6.214;2023-02-28T16:59:01;6.30;99.90
62339;DHT22;48368;53.406;6.214;2023-02-28T17:01:27;6.30;99.90
62339;DHT22;48368;53.406;6.214;2023-02-28T17:03:54;6.20;99.90
62339;DHT22;48368;53.406;6.214;2023-02-28T17:06:30;6.30;99.90
62339;DHT22;48368;53.406;6.214;2023-02-28T17:08:57;6.20;99.90
62339;DHT22;48368;53.406;6.214;2023-02-28T17:11:24;6.20;99.90
62339;DHT22;48368;53.406;6.214;2023-02-28T17:13:50;6.10;99.90
62339;DHT22;48368;53.406;6.214;2023-02-28T17:18:45;6.00;99.90
62339;DHT22;48368;53.406;6.214;2023-02-28T17:21:15;5.90;99.90
62339;DHT22;48368;53.406;6.214;2023-02-28T17:23:42;5.90;99.90
62339;DHT22;48368;53.406;6.214;2023-02-28T17:26:12;5.80;99.90
62339;DHT22;48368;53.406;6.214;2023-02-28T17:28:38;5.70;99.90
62339;DHT22;48368;53.406;6.214;2023-02-28T17:31:04;5.60;99.90
62339;DHT22;48368;53.406;6.214;2023-02-28T17:33:30;5.60;99.90
62339;DHT22;48368;53.406;6.214;2023-02-28T17:35:55;5.50;99.90
62339;DHT22;48368;53.406;6.214;2023-02-28T17:38:21;5.40;99.90
62339;DHT22;48368;53.406;6.214;2023-02-28T17:40:55;5.40;99.90
62339;DHT22;48368;53.406;6.214;2023-02-28T17:43:26;5.30;99.90
62339;DHT22;48368;53.406;6.214;2023-02-28T17:45:53;5.20;99.90
62339;DHT22;48368;53.406;6.214;2023-02-28T17:48:19;5.20;99.90
62339;DHT22;48368;53.406;6.214;2023-02-28T17:50:45;5.10;99.90
62339;DHT22;48368;53.406;6.214;2023-02-28T17:53:11;5.00;99.90
62339;DHT22;48368;53.406;6.214;2023-02-28T17:55:36;5.00;99.90
62339;DHT22;48368;53.406;6.214;2023-02-28T17:58:03;4.90;99.90
62339;DHT22;48368;53.406;6.214;2023-02-28T18:00:29;4.90;99.90
62339;DHT22;48368;53.406;6.214;2023-02-28T18:02:55;4.80;99.90
62339;DHT22;48368;53.406;6.214;2023-02-28T18:05:21;4.80;99.90
62339;DHT22;48368;53.406;6.214;2023-02-28T18:07:46;4.70;99.90
62339;DHT22;48368;53.406;6.214;2023-02-28T18:10:18;4.70;99.90
62339;DHT22;48368;53.406;6.214;2023-02-28T18:12:48;4.60;99.90
62339;DHT22;48368;53.406;6.214;2023-02-28T18:15:15;4.50;99.90
62339;DHT22;48368;53.406;6.214;2023-02-28T18:17:42;4.50;99.90
62339;DHT22;48368;53.406;6.214;2023-02-28T18:20:09;4.40;99.90
62339;DHT22;48368;53.406;6.214;2023-02-28T18:22:36;4.40;99.90
62339;DHT22;48368;53.406;6.214;2023-02-28T18:25:06;4.40;99.90
62339;DHT22;48368;53.406;6.214;2023-02-28T18:27:34;4.40;99.90